createdAt,value
2022-12-07T00:00:58.073Z,89.20
2022-12-07T00:01:58.250Z,89.10
2022-12-07T00:02:58.097Z,89.00
2022-12-07T00:03:58.037Z,88.89
2022-12-07T00:04:58.020Z,88.79
2022-12-07T00:05:58.013Z,88.69
2022-12-07T00:06:58.004Z,88.69
2022-12-07T00:07:58.039Z,88.62
2022-12-07T00:08:57.974Z,88.62
2022-12-07T00:09:58.126Z,88.58
2022-12-07T00:10:57.960Z,88.69
2022-12-07T00:11:57.953Z,88.48
2022-12-07T00:12:57.935Z,88.38
2022-12-07T00:13:57.943Z,88.31
2022-12-07T00:14:57.909Z,88.42
2022-12-07T00:15:57.902Z,88.42
2022-12-07T00:16:57.968Z,88.42
2022-12-07T00:17:57.882Z,88.38
2022-12-07T00:18:57.874Z,88.48
2022-12-07T00:19:57.960Z,88.42
2022-12-07T00:20:57.846Z,88.31
2022-12-07T00:21:57.838Z,88.21
2022-12-07T00:22:57.821Z,88.21
2022-12-07T00:23:57.807Z,88.11
2022-12-07T00:24:57.794Z,87.90
2022-12-07T00:25:57.792Z,87.79
2022-12-07T00:26:57.779Z,87.69
2022-12-07T00:27:57.766Z,87.48
2022-12-07T00:28:57.761Z,87.38
2022-12-07T00:29:57.769Z,87.28
2022-12-07T00:30:57.734Z,87.17
2022-12-07T00:31:57.752Z,87.07
2022-12-07T00:32:57.705Z,86.90
2022-12-07T00:33:57.700Z,86.90
2022-12-07T00:34:57.698Z,86.80
2022-12-07T00:35:57.674Z,86.76
2022-12-07T00:36:57.667Z,86.76
2022-12-07T00:37:57.662Z,86.55
2022-12-07T00:38:57.643Z,86.34
2022-12-07T00:39:57.632Z,86.34
2022-12-07T00:40:57.621Z,86.24
2022-12-07T00:41:57.609Z,86.14
2022-12-07T00:42:57.596Z,86.04
2022-12-07T00:43:57.582Z,86.18
2022-12-07T00:44:57.580Z,86.18
2022-12-07T00:45:57.667Z,86.24
2022-12-07T00:46:57.555Z,86.18
2022-12-07T00:47:57.543Z,86.18
2022-12-07T00:48:57.524Z,86.28
2022-12-07T00:49:57.513Z,85.97
2022-12-07T00:50:57.509Z,85.87
2022-12-07T00:51:57.499Z,85.87
2022-12-07T00:52:57.490Z,85.87
2022-12-07T00:53:57.476Z,85.87
2022-12-07T00:54:57.465Z,85.76
2022-12-07T00:55:57.462Z,85.66
2022-12-07T00:56:57.434Z,85.55
2022-12-07T00:57:57.438Z,85.35
2022-12-07T00:58:57.411Z,85.24
2022-12-07T00:59:57.407Z,85.14
2022-12-07T01:00:57.489Z,85.04
2022-12-07T01:01:57.545Z,84.93
2022-12-07T01:02:57.439Z,84.93
2022-12-07T01:03:57.364Z,84.83
2022-12-07T01:04:57.344Z,84.83
2022-12-07T01:05:57.359Z,84.72
2022-12-07T01:06:57.328Z,84.72
2022-12-07T01:07:57.417Z,84.62
2022-12-07T01:08:57.305Z,84.62
2022-12-07T01:09:57.287Z,84.46
2022-12-07T01:10:57.282Z,84.46
2022-12-07T01:11:57.265Z,84.25
2022-12-07T01:12:57.255Z,84.35
2022-12-07T01:13:57.242Z,84.35
2022-12-07T01:14:57.237Z,84.35
2022-12-07T01:15:57.227Z,84.25
2022-12-07T01:16:57.431Z,84.46
2022-12-07T01:17:57.244Z,84.60
2022-12-07T01:18:57.193Z,84.66
2022-12-07T01:19:57.182Z,84.77
2022-12-07T01:20:57.170Z,84.66
2022-12-07T01:21:57.160Z,84.46
2022-12-07T01:22:57.147Z,84.35
2022-12-07T01:23:57.137Z,84.39
2022-12-07T01:24:57.130Z,84.49
2022-12-07T01:25:57.113Z,84.49
2022-12-07T01:26:57.108Z,84.49
2022-12-07T01:27:57.092Z,84.49
2022-12-07T01:28:57.090Z,84.49
2022-12-07T01:29:57.067Z,84.49
2022-12-07T01:30:57.142Z,84.60
2022-12-07T01:31:57.047Z,84.60
2022-12-07T01:32:57.028Z,84.70
2022-12-07T01:33:57.040Z,84.80
2022-12-07T01:34:57.013Z,84.80
2022-12-07T01:35:57.004Z,85.01
2022-12-07T01:36:56.988Z,85.01
2022-12-07T01:37:56.990Z,85.01
2022-12-07T01:38:56.969Z,85.01
2022-12-07T01:39:56.962Z,84.91
2022-12-07T01:40:56.943Z,84.91
2022-12-07T01:41:56.928Z,84.91
2022-12-07T01:42:56.922Z,85.01
2022-12-07T01:43:56.915Z,84.97
2022-12-07T01:44:56.900Z,84.87
2022-12-07T01:45:56.989Z,84.77
2022-12-07T01:46:56.940Z,84.66
2022-12-07T01:47:56.866Z,84.56
2022-12-07T01:48:56.864Z,84.49
2022-12-07T01:49:56.865Z,84.49
2022-12-07T01:50:56.834Z,84.28
2022-12-07T01:51:56.821Z,84.28
2022-12-07T01:52:56.806Z,84.18
2022-12-07T01:53:56.798Z,84.18
2022-12-07T01:54:56.782Z,84.18
2022-12-07T01:55:56.773Z,84.18
2022-12-07T01:56:56.758Z,84.18
2022-12-07T01:57:56.755Z,84.39
2022-12-07T01:58:56.747Z,84.49
2022-12-07T01:59:56.729Z,84.35
2022-12-07T02:00:56.739Z,84.28
2022-12-07T02:01:56.849Z,84.08
2022-12-07T02:02:56.793Z,84.08
2022-12-07T02:03:56.686Z,84.08
2022-12-07T02:04:56.669Z,84.08
2022-12-07T02:05:56.680Z,84.08
2022-12-07T02:06:56.653Z,84.08
2022-12-07T02:07:56.731Z,84.14
2022-12-07T02:08:56.630Z,84.14
2022-12-07T02:09:56.614Z,84.04
2022-12-07T02:10:56.611Z,84.04
2022-12-07T02:11:56.595Z,84.04
2022-12-07T02:12:56.585Z,84.04
2022-12-07T02:13:56.572Z,84.04
2022-12-07T02:14:56.562Z,83.73
2022-12-07T02:15:56.640Z,83.63
2022-12-07T02:16:56.536Z,83.63
2022-12-07T02:17:56.521Z,83.63
2022-12-07T02:18:56.536Z,83.52
2022-12-07T02:19:56.502Z,83.45
2022-12-07T02:20:56.500Z,83.56
2022-12-07T02:21:56.599Z,83.56
2022-12-07T02:22:56.494Z,83.66
2022-12-07T02:23:56.475Z,83.77
2022-12-07T02:24:56.454Z,83.77
2022-12-07T02:25:56.489Z,83.87
2022-12-07T02:26:56.433Z,83.87
2022-12-07T02:27:56.421Z,83.87
2022-12-07T02:28:56.399Z,83.97
2022-12-07T02:29:56.392Z,83.97
2022-12-07T02:30:56.404Z,83.87
2022-12-07T02:31:56.370Z,83.97
2022-12-07T02:32:56.353Z,84.18
2022-12-07T02:33:56.352Z,83.97
2022-12-07T02:34:56.337Z,84.08
2022-12-07T02:35:56.328Z,84.18
2022-12-07T02:36:56.308Z,84.04
2022-12-07T02:37:56.330Z,83.94
2022-12-07T02:38:56.286Z,83.94
2022-12-07T02:39:56.285Z,83.94
2022-12-07T02:40:56.269Z,83.94
2022-12-07T02:41:56.252Z,84.08
2022-12-07T02:42:56.247Z,84.18
2022-12-07T02:43:56.233Z,84.25
2022-12-07T02:44:56.226Z,84.25
2022-12-07T02:45:56.248Z,84.35
2022-12-07T02:46:56.196Z,84.35
2022-12-07T02:47:56.194Z,84.35
2022-12-07T02:48:56.183Z,84.35
2022-12-07T02:49:56.169Z,84.46
2022-12-07T02:50:56.157Z,84.49
2022-12-07T02:51:56.139Z,84.49
2022-12-07T02:52:56.130Z,84.60
2022-12-07T02:53:56.149Z,84.60
2022-12-07T02:54:56.105Z,84.70
2022-12-07T02:55:56.110Z,84.80
2022-12-07T02:56:56.089Z,84.91
2022-12-07T02:57:56.074Z,85.01
2022-12-07T02:58:56.078Z,85.11
2022-12-07T02:59:56.054Z,85.22
2022-12-07T03:00:56.038Z,85.22
2022-12-07T03:01:56.106Z,85.32
2022-12-07T03:02:56.153Z,85.43
2022-12-07T03:03:56.005Z,85.43
2022-12-07T03:04:56.002Z,85.77
2022-12-07T03:05:55.987Z,85.98
2022-12-07T03:06:55.970Z,86.19
2022-12-07T03:07:56.045Z,86.29
2022-12-07T03:08:55.948Z,86.51
2022-12-07T03:09:55.963Z,86.75
2022-12-07T03:10:55.935Z,86.85
2022-12-07T03:11:55.924Z,86.96
2022-12-07T03:12:55.914Z,86.85
2022-12-07T03:13:55.891Z,87.06
2022-12-07T03:14:55.893Z,87.27
2022-12-07T03:15:55.930Z,87.27
2022-12-07T03:16:55.865Z,87.37
2022-12-07T03:17:55.849Z,87.48
2022-12-07T03:18:55.838Z,87.48
2022-12-07T03:19:55.829Z,87.58
2022-12-07T03:20:55.815Z,87.58
2022-12-07T03:21:55.810Z,87.79
2022-12-07T03:22:55.797Z,88.00
2022-12-07T03:23:55.780Z,88.00
2022-12-07T03:24:55.768Z,88.04
2022-12-07T03:26:00.213Z,88.14
2022-12-07T03:26:55.746Z,88.25
2022-12-07T03:27:55.739Z,88.45
2022-12-07T03:28:55.735Z,88.56
2022-12-07T03:29:55.713Z,88.62
2022-12-07T03:30:55.759Z,88.62
2022-12-07T03:31:55.698Z,88.73
2022-12-07T03:32:55.681Z,88.73
2022-12-07T03:33:55.668Z,88.73
2022-12-07T03:34:55.663Z,88.73
2022-12-07T03:35:55.655Z,88.73
2022-12-07T03:36:55.641Z,88.73
2022-12-07T03:37:55.628Z,88.83
2022-12-07T03:38:55.613Z,88.94
2022-12-07T03:39:55.604Z,88.94
2022-12-07T03:40:55.597Z,88.94
2022-12-07T03:41:55.607Z,88.73
2022-12-07T03:42:55.583Z,88.73
2022-12-07T03:43:55.556Z,88.62
2022-12-07T03:44:55.544Z,88.48
2022-12-07T03:45:55.539Z,88.41
2022-12-07T03:46:55.614Z,88.31
2022-12-07T03:47:55.516Z,88.31
2022-12-07T03:48:55.506Z,88.51
2022-12-07T03:49:55.498Z,88.51
2022-12-07T03:50:55.483Z,88.62
2022-12-07T03:51:55.473Z,88.73
2022-12-07T03:52:55.453Z,88.87
2022-12-07T03:53:55.456Z,88.97
2022-12-07T03:54:55.433Z,89.18
2022-12-07T03:55:55.428Z,89.28
2022-12-07T03:56:55.417Z,89.39
2022-12-07T03:57:55.433Z,89.49
2022-12-07T03:58:55.403Z,89.49
2022-12-07T03:59:55.386Z,89.49
2022-12-07T04:00:55.377Z,89.59
2022-12-07T04:01:55.448Z,89.59
2022-12-07T04:02:55.394Z,89.70
2022-12-07T04:03:55.332Z,89.81
2022-12-07T04:04:55.327Z,89.66
2022-12-07T04:05:55.318Z,89.77
2022-12-07T04:06:55.299Z,89.77
2022-12-07T04:07:55.335Z,89.87
2022-12-07T04:08:55.281Z,89.91
2022-12-07T04:09:55.270Z,90.02
2022-12-07T04:10:55.252Z,90.12
2022-12-07T04:11:55.250Z,90.33
2022-12-07T04:12:55.233Z,90.33
2022-12-07T04:13:55.260Z,90.28
2022-12-07T04:14:55.207Z,90.33
2022-12-07T04:15:55.279Z,90.43
2022-12-07T04:16:55.187Z,90.64
2022-12-07T04:17:55.174Z,90.53
2022-12-07T04:18:55.165Z,90.53
2022-12-07T04:19:55.157Z,90.74
2022-12-07T04:20:55.141Z,90.74
2022-12-07T04:21:55.136Z,90.70
2022-12-07T04:22:55.122Z,90.60
2022-12-07T04:23:55.115Z,90.64
2022-12-07T04:24:55.095Z,90.74
2022-12-07T04:25:55.089Z,90.74
2022-12-07T04:26:55.086Z,90.85
2022-12-07T04:27:55.070Z,90.85
2022-12-07T04:28:55.065Z,90.85
2022-12-07T04:29:55.067Z,90.95
2022-12-07T04:30:55.037Z,91.05
2022-12-07T04:31:55.172Z,91.16
2022-12-07T04:32:55.005Z,91.26
2022-12-07T04:33:54.999Z,91.26
2022-12-07T04:34:55.959Z,91.26
2022-12-07T04:35:54.982Z,91.26
2022-12-07T04:36:54.964Z,91.36
2022-12-07T04:37:54.962Z,91.26
2022-12-07T04:38:54.937Z,91.36
2022-12-07T04:39:54.929Z,91.43
2022-12-07T04:40:54.921Z,91.43
2022-12-07T04:41:54.910Z,91.43
2022-12-07T04:42:54.903Z,91.47
2022-12-07T04:43:54.888Z,91.57
2022-12-07T04:44:54.883Z,91.68
2022-12-07T04:45:54.887Z,91.88
2022-12-07T04:46:54.967Z,91.99
2022-12-07T04:47:54.850Z,92.09
2022-12-07T04:48:54.825Z,92.05
2022-12-07T04:49:54.818Z,91.99
2022-12-07T04:50:54.811Z,92.05
2022-12-07T04:51:54.803Z,92.09
2022-12-07T04:52:54.786Z,92.19
2022-12-07T04:53:54.768Z,92.30
2022-12-07T04:54:54.766Z,92.36
2022-12-07T04:55:54.756Z,92.36
2022-12-07T04:56:54.743Z,92.36
2022-12-07T04:57:54.726Z,92.36
2022-12-07T04:58:54.728Z,92.36
2022-12-07T04:59:54.705Z,92.46
2022-12-07T05:00:54.752Z,92.57
2022-12-07T05:01:54.808Z,92.57
2022-12-07T05:02:54.671Z,92.57
2022-12-07T05:03:54.658Z,92.67
2022-12-07T05:04:54.647Z,92.67
2022-12-07T05:05:54.642Z,92.67
2022-12-07T05:06:54.630Z,92.67
2022-12-07T05:07:54.678Z,92.67
2022-12-07T05:08:54.611Z,92.77
2022-12-07T05:09:54.609Z,92.73
2022-12-07T05:10:54.587Z,92.73
2022-12-07T05:11:54.580Z,92.73
2022-12-07T05:12:54.564Z,92.73
2022-12-07T05:13:54.552Z,92.73
2022-12-07T05:14:54.536Z,92.63
2022-12-07T05:15:54.589Z,92.67
2022-12-07T05:16:54.561Z,92.67
2022-12-07T05:17:54.531Z,92.77
2022-12-07T05:18:54.496Z,92.77
2022-12-07T05:19:54.481Z,92.88
2022-12-07T05:20:54.474Z,92.98
2022-12-07T05:21:54.464Z,93.09
2022-12-07T05:22:54.451Z,93.20
2022-12-07T05:23:54.434Z,93.26
2022-12-07T05:24:54.435Z,93.26
2022-12-07T05:25:54.417Z,93.15
2022-12-07T05:26:54.401Z,93.15
2022-12-07T05:27:54.389Z,93.26
2022-12-07T05:28:54.386Z,93.36
2022-12-07T05:29:54.375Z,93.36
2022-12-07T05:30:59.570Z,93.36
2022-12-07T05:31:54.409Z,93.36
2022-12-07T05:32:54.340Z,93.46
2022-12-07T05:33:54.351Z,93.46
2022-12-07T05:34:54.311Z,93.46
2022-12-07T05:35:54.305Z,93.42
2022-12-07T05:36:54.290Z,93.42
2022-12-07T05:37:54.283Z,93.32
2022-12-07T05:38:54.275Z,93.32
2022-12-07T05:39:54.260Z,93.32
2022-12-07T05:40:54.251Z,93.32
2022-12-07T05:41:54.243Z,93.32
2022-12-07T05:42:54.226Z,93.42
2022-12-07T05:43:54.215Z,93.32
2022-12-07T05:44:54.203Z,93.28
2022-12-07T05:45:54.299Z,93.17
2022-12-07T05:46:54.176Z,93.17
2022-12-07T05:47:54.163Z,93.07
2022-12-07T05:48:54.155Z,93.07
2022-12-07T05:49:54.169Z,93.07
2022-12-07T05:50:54.142Z,92.96
2022-12-07T05:51:54.131Z,92.96
2022-12-07T05:52:54.106Z,92.96
2022-12-07T05:53:54.098Z,92.96
2022-12-07T05:54:54.091Z,92.96
2022-12-07T05:55:54.074Z,92.86
2022-12-07T05:56:54.072Z,92.96
2022-12-07T05:57:54.052Z,92.96
2022-12-07T05:58:54.045Z,92.96
2022-12-07T05:59:54.043Z,92.96
2022-12-07T06:00:54.027Z,92.96
2022-12-07T06:01:54.100Z,92.92
2022-12-07T06:02:54.133Z,92.92
2022-12-07T06:03:53.993Z,92.92
2022-12-07T06:04:53.971Z,92.82
2022-12-07T06:05:54.030Z,92.82
2022-12-07T06:06:53.952Z,92.82
2022-12-07T06:07:54.035Z,92.92
2022-12-07T06:08:53.934Z,92.92
2022-12-07T06:09:53.924Z,92.82
2022-12-07T06:10:53.920Z,92.71
2022-12-07T06:11:53.899Z,92.82
2022-12-07T06:12:53.883Z,92.82
2022-12-07T06:13:53.877Z,92.82
2022-12-07T06:14:53.869Z,92.82
2022-12-07T06:15:53.954Z,92.82
2022-12-07T06:16:53.909Z,92.82
2022-12-07T06:17:53.834Z,92.71
2022-12-07T06:18:53.819Z,92.71
2022-12-07T06:19:53.808Z,92.82
2022-12-07T06:20:53.801Z,92.82
2022-12-07T06:21:53.803Z,92.92
2022-12-07T06:22:53.768Z,92.92
2022-12-07T06:23:53.763Z,92.92
2022-12-07T06:24:53.754Z,92.92
2022-12-07T06:25:53.735Z,92.92
2022-12-07T06:26:53.729Z,93.02
2022-12-07T06:27:53.711Z,93.02
2022-12-07T06:28:53.702Z,93.02
2022-12-07T06:29:53.689Z,92.98
2022-12-07T06:30:53.685Z,92.98
2022-12-07T06:31:53.731Z,92.98
2022-12-07T06:32:53.656Z,92.98
2022-12-07T06:33:53.655Z,92.88
2022-12-07T06:34:53.642Z,92.77
2022-12-07T06:35:53.629Z,92.77
2022-12-07T06:36:53.611Z,92.77
2022-12-07T06:37:53.639Z,92.77
2022-12-07T06:38:53.589Z,92.77
2022-12-07T06:39:53.576Z,92.67
2022-12-07T06:40:53.572Z,92.57
2022-12-07T06:41:53.560Z,92.57
2022-12-07T06:42:55.547Z,92.57
2022-12-07T06:43:56.249Z,92.46
2022-12-07T06:44:55.518Z,92.46
2022-12-07T06:45:53.585Z,92.46
2022-12-07T06:47:06.684Z,92.46
2022-12-07T06:47:53.495Z,92.46
2022-12-07T06:48:53.483Z,92.46
2022-12-07T06:49:53.469Z,92.46
2022-12-07T06:50:55.303Z,92.46
2022-12-07T06:51:53.446Z,92.46
2022-12-07T06:52:53.429Z,92.42
2022-12-07T06:53:53.448Z,92.52
2022-12-07T06:54:53.408Z,92.42
2022-12-07T06:55:53.401Z,92.42
2022-12-07T06:56:55.390Z,92.32
2022-12-07T06:57:53.379Z,92.32
2022-12-07T06:58:53.365Z,92.32
2022-12-07T06:59:55.365Z,92.21
2022-12-07T07:00:53.457Z,92.21
2022-12-07T07:01:53.400Z,92.11
2022-12-07T07:02:53.423Z,92.11
2022-12-07T07:03:53.329Z,92.11
2022-12-07T07:04:55.300Z,92.11
2022-12-07T07:05:53.283Z,92.01
2022-12-07T07:06:59.871Z,92.01
2022-12-07T07:08:20.919Z,92.11
2022-12-07T07:08:53.306Z,92.01
2022-12-07T07:09:53.268Z,92.01
2022-12-07T07:10:53.229Z,92.01
2022-12-07T07:11:53.216Z,92.01
2022-12-07T07:12:57.323Z,92.01
2022-12-07T07:13:55.197Z,91.96
2022-12-07T07:14:53.188Z,91.96
2022-12-07T07:15:55.171Z,91.96
2022-12-07T07:16:53.246Z,91.96
2022-12-07T07:17:53.155Z,91.96
2022-12-07T07:18:55.137Z,91.86
2022-12-07T07:19:53.140Z,91.86
2022-12-07T07:20:53.123Z,91.86
2022-12-07T07:21:53.109Z,91.86
2022-12-07T07:22:53.093Z,91.76
2022-12-07T07:23:55.080Z,91.86
2022-12-07T07:24:53.076Z,91.76
2022-12-07T07:25:53.080Z,91.76
2022-12-07T07:26:53.063Z,91.65
2022-12-07T07:27:53.042Z,91.65
2022-12-07T07:28:53.038Z,91.55
2022-12-07T07:29:53.015Z,91.55
2022-12-07T07:30:53.153Z,91.51
2022-12-07T07:31:53.001Z,91.40
2022-12-07T07:32:52.979Z,91.40
2022-12-07T07:33:52.979Z,91.30
2022-12-07T07:34:52.958Z,91.19
2022-12-07T07:35:52.959Z,91.19
2022-12-07T07:36:52.943Z,91.09
2022-12-07T07:37:52.945Z,90.99
2022-12-07T07:38:52.926Z,90.99
2022-12-07T07:39:52.909Z,90.88
2022-12-07T07:40:52.898Z,90.88
2022-12-07T07:41:52.925Z,90.78
2022-12-07T07:42:52.875Z,90.67
2022-12-07T07:43:52.865Z,90.57
2022-12-07T07:44:52.850Z,90.57
2022-12-07T07:45:52.872Z,90.36
2022-12-07T07:46:52.830Z,90.12
2022-12-07T07:47:52.826Z,89.91
2022-12-07T07:48:52.806Z,89.81
2022-12-07T07:49:52.802Z,89.60
2022-12-07T07:50:52.782Z,89.39
2022-12-07T07:51:52.775Z,89.29
2022-12-07T07:52:52.763Z,89.19
2022-12-07T07:53:52.754Z,88.98
2022-12-07T07:54:52.745Z,88.87
2022-12-07T07:55:52.724Z,88.67
2022-12-07T07:56:52.718Z,88.56
2022-12-07T07:57:54.869Z,88.56
2022-12-07T07:58:52.696Z,88.46
2022-12-07T07:59:52.681Z,88.36
2022-12-07T08:00:52.674Z,88.36
2022-12-07T08:01:52.776Z,88.36
2022-12-07T08:02:52.651Z,88.36
2022-12-07T08:03:52.635Z,88.26
2022-12-07T08:04:52.748Z,88.26
2022-12-07T08:05:52.621Z,88.26
2022-12-07T08:06:52.605Z,88.36
2022-12-07T08:07:52.713Z,88.36
2022-12-07T08:08:52.582Z,88.46
2022-12-07T08:09:52.569Z,88.46
2022-12-07T08:10:52.562Z,88.46
2022-12-07T08:11:52.546Z,88.36
2022-12-07T08:12:52.539Z,88.36
2022-12-07T08:13:52.549Z,88.26
2022-12-07T08:14:52.510Z,88.26
2022-12-07T08:15:52.530Z,88.26
2022-12-07T08:16:52.488Z,88.36
2022-12-07T08:17:52.479Z,88.15
2022-12-07T08:18:52.465Z,88.05
2022-12-07T08:19:52.458Z,88.05
2022-12-07T08:20:52.442Z,87.84
2022-12-07T08:21:52.430Z,87.74
2022-12-07T08:22:52.426Z,87.74
2022-12-07T08:23:52.412Z,87.74
2022-12-07T08:24:52.403Z,87.74
2022-12-07T08:25:52.399Z,87.74
2022-12-07T08:26:52.486Z,87.64
2022-12-07T08:27:52.425Z,87.49
2022-12-07T08:28:52.410Z,87.39
2022-12-07T08:29:52.376Z,87.39
2022-12-07T08:30:52.433Z,87.39
2022-12-07T08:31:52.372Z,87.39
2022-12-07T08:32:52.315Z,87.39
2022-12-07T08:33:52.308Z,87.28
2022-12-07T08:34:52.285Z,87.07
2022-12-07T08:35:52.279Z,86.93
2022-12-07T08:36:52.271Z,86.83
2022-12-07T08:37:52.407Z,86.62
2022-12-07T08:39:29.382Z,86.52
2022-12-07T08:39:52.229Z,86.21
2022-12-07T08:40:52.219Z,85.90
2022-12-07T08:41:52.215Z,85.80
2022-12-07T08:42:52.203Z,85.69
2022-12-07T08:43:52.191Z,85.28
2022-12-07T08:44:52.186Z,85.07
2022-12-07T08:45:52.339Z,84.55
2022-12-07T08:46:52.351Z,84.25
2022-12-07T08:47:52.247Z,83.94
2022-12-07T08:48:52.234Z,83.83
2022-12-07T08:49:52.221Z,83.73
2022-12-07T08:50:52.109Z,83.63
2022-12-07T08:51:52.102Z,83.73
2022-12-07T08:52:52.086Z,83.52
2022-12-07T08:53:52.082Z,83.21
2022-12-07T08:54:52.064Z,82.90
2022-12-07T08:55:52.059Z,82.70
2022-12-07T08:56:57.119Z,82.49
2022-12-07T08:57:52.032Z,82.18
2022-12-07T08:58:52.021Z,81.76
2022-12-07T08:59:52.012Z,81.56
2022-12-07T09:00:51.999Z,81.25
2022-12-07T09:01:52.108Z,80.94
2022-12-07T09:02:51.975Z,80.73
2022-12-07T09:03:51.965Z,80.63
2022-12-07T09:04:51.968Z,80.52
2022-12-07T09:05:52.055Z,80.49
2022-12-07T09:06:52.030Z,80.11
2022-12-07T09:07:51.975Z,79.66
2022-12-07T09:08:51.917Z,79.45
2022-12-07T09:09:51.905Z,79.25
2022-12-07T09:10:51.895Z,78.83
2022-12-07T09:11:51.883Z,78.77
2022-12-07T09:12:51.875Z,78.77
2022-12-07T09:13:51.860Z,79.04
2022-12-07T09:14:51.852Z,78.94
2022-12-07T09:15:51.877Z,78.94
2022-12-07T09:16:51.833Z,78.63
2022-12-07T09:17:51.837Z,78.32
2022-12-07T09:18:51.809Z,77.80
2022-12-07T09:19:51.939Z,78.00
2022-12-07T09:20:51.786Z,78.21
2022-12-07T09:21:51.768Z,77.90
2022-12-07T09:22:51.764Z,78.00
2022-12-07T09:23:51.745Z,77.63
2022-12-07T09:24:51.736Z,77.53
2022-12-07T09:25:51.729Z,77.63
2022-12-07T09:26:51.723Z,77.53
2022-12-07T09:27:51.702Z,77.53
2022-12-07T09:28:51.697Z,77.74
2022-12-07T09:29:51.678Z,77.94
2022-12-07T09:31:51.667Z,77.83
2022-12-07T09:32:51.653Z,77.42
2022-12-07T09:33:51.700Z,77.32
2022-12-07T09:34:51.762Z,77.53
2022-12-07T09:35:51.615Z,77.94
2022-12-07T09:36:51.609Z,77.94
2022-12-07T09:37:51.592Z,77.94
2022-12-07T09:38:51.583Z,77.94
2022-12-07T09:39:51.582Z,77.94
2022-12-07T09:40:51.561Z,78.18
2022-12-07T09:41:51.561Z,78.56
2022-12-07T09:42:51.608Z,78.77
2022-12-07T09:43:51.533Z,78.56
2022-12-07T09:44:51.516Z,78.66
2022-12-07T09:45:51.512Z,78.66
2022-12-07T09:46:51.552Z,78.56
2022-12-07T09:47:51.492Z,78.66
2022-12-07T09:48:51.477Z,78.14
2022-12-07T09:49:51.496Z,77.53
2022-12-07T09:50:51.474Z,77.83
2022-12-07T09:51:51.452Z,77.74
2022-12-07T09:52:51.433Z,77.63
2022-12-07T09:53:51.422Z,77.74
2022-12-07T09:54:51.404Z,77.63
2022-12-07T09:55:51.402Z,77.32
2022-12-07T09:56:51.399Z,77.11
2022-12-07T09:57:51.379Z,76.91
2022-12-07T09:58:51.368Z,76.70
2022-12-07T09:59:51.358Z,76.91
2022-12-07T10:00:51.338Z,77.22
2022-12-07T10:01:51.417Z,76.70
2022-12-07T10:02:51.323Z,76.39
2022-12-07T10:03:51.311Z,76.18
2022-12-07T10:04:51.357Z,76.39
2022-12-07T10:05:51.317Z,76.70
2022-12-07T10:06:51.278Z,77.01
2022-12-07T10:07:51.348Z,77.22
2022-12-07T10:08:51.258Z,77.22
2022-12-07T10:09:51.243Z,76.80
2022-12-07T10:10:51.234Z,76.91
2022-12-07T10:11:51.242Z,76.70
2022-12-07T10:12:51.213Z,76.94
2022-12-07T10:13:51.194Z,77.36
2022-12-07T10:15:06.872Z,77.63
2022-12-07T10:15:51.231Z,77.42
2022-12-07T10:16:51.160Z,77.01
2022-12-07T10:17:51.157Z,76.80
2022-12-07T10:18:51.150Z,77.01
2022-12-07T10:19:51.130Z,77.42
2022-12-07T10:20:51.117Z,77.42
2022-12-07T10:21:51.131Z,77.22
2022-12-07T10:22:51.099Z,77.11
2022-12-07T10:23:51.095Z,76.91
2022-12-07T10:24:51.083Z,76.80
2022-12-07T10:25:51.068Z,77.08
2022-12-07T10:26:51.065Z,76.97
2022-12-07T10:27:51.050Z,76.87
2022-12-07T10:28:51.035Z,76.87
2022-12-07T10:29:51.026Z,76.77
2022-12-07T10:30:51.233Z,76.36
2022-12-07T10:31:51.102Z,76.15
2022-12-07T10:32:50.992Z,75.59
2022-12-07T10:33:50.979Z,75.59
2022-12-07T10:34:52.462Z,75.04
2022-12-07T10:35:50.950Z,74.81
2022-12-07T10:36:50.944Z,74.67
2022-12-07T10:37:50.960Z,74.08
2022-12-07T10:38:50.917Z,73.33
2022-12-07T10:39:50.911Z,71.61
2022-12-07T10:40:50.902Z,70.34
2022-12-07T10:41:50.892Z,70.03
2022-12-07T10:42:50.883Z,69.83
2022-12-07T10:43:50.876Z,69.79
2022-12-07T10:44:50.897Z,69.21
2022-12-07T10:46:03.241Z,69.55
2022-12-07T10:46:50.887Z,70.27
2022-12-07T10:47:50.833Z,70.79
2022-12-07T10:48:50.828Z,70.92
2022-12-07T10:49:50.819Z,71.47
2022-12-07T10:50:50.787Z,71.71
2022-12-07T10:51:50.780Z,72.05
2022-12-07T10:52:50.770Z,72.36
2022-12-07T10:53:50.782Z,73.12
2022-12-07T10:54:50.745Z,73.63
2022-12-07T10:55:50.741Z,73.95
2022-12-07T10:56:52.663Z,73.84
2022-12-07T10:57:50.711Z,74.25
2022-12-07T10:58:50.696Z,74.25
2022-12-07T10:59:50.682Z,74.15
2022-12-07T11:00:50.716Z,74.25
2022-12-07T11:01:50.724Z,74.25
2022-12-07T11:02:50.658Z,74.08
2022-12-07T11:03:50.643Z,74.18
2022-12-07T11:04:50.623Z,74.60
2022-12-07T11:05:50.619Z,74.70
2022-12-07T11:06:50.604Z,74.90
2022-12-07T11:07:55.194Z,75.32
2022-12-07T11:08:50.599Z,75.42
2022-12-07T11:10:14.721Z,75.46
2022-12-07T11:10:50.554Z,75.67
2022-12-07T11:11:50.544Z,76.04
2022-12-07T11:12:50.538Z,76.25
2022-12-07T11:13:50.526Z,76.25
2022-12-07T11:14:50.517Z,76.08
2022-12-07T11:15:50.595Z,76.28
2022-12-07T11:16:50.560Z,76.70
2022-12-07T11:17:50.481Z,76.80
2022-12-07T11:18:50.477Z,76.80
2022-12-07T11:19:50.459Z,76.66
2022-12-07T11:20:50.441Z,76.56
2022-12-07T11:21:50.436Z,76.35
2022-12-07T11:22:50.426Z,76.35
2022-12-07T11:23:50.410Z,76.56
2022-12-07T11:24:50.397Z,76.56
2022-12-07T11:25:50.417Z,76.35
2022-12-07T11:26:50.374Z,76.45
2022-12-07T11:27:50.369Z,76.45
2022-12-07T11:28:50.373Z,76.04
2022-12-07T11:29:50.338Z,75.94
2022-12-07T11:30:50.357Z,75.84
2022-12-07T11:31:50.429Z,75.63
2022-12-07T11:32:50.321Z,75.63
2022-12-07T11:33:50.298Z,75.97
2022-12-07T11:34:50.289Z,76.59
2022-12-07T11:35:50.284Z,76.59
2022-12-07T11:36:50.273Z,76.70
2022-12-07T11:37:50.262Z,77.11
2022-12-07T11:38:50.239Z,77.25
2022-12-07T11:39:50.230Z,77.31
2022-12-07T11:40:50.216Z,77.21
2022-12-07T11:41:50.236Z,77.11
2022-12-07T11:42:50.202Z,76.87
2022-12-07T11:43:50.187Z,76.56
2022-12-07T11:44:50.176Z,76.35
2022-12-07T11:45:50.158Z,76.45
2022-12-07T11:46:50.193Z,76.45
2022-12-07T11:47:50.135Z,76.45
2022-12-07T11:48:50.130Z,76.66
2022-12-07T11:49:50.119Z,76.66
2022-12-07T11:50:50.107Z,76.56
2022-12-07T11:51:50.095Z,76.45
2022-12-07T11:52:50.093Z,76.35
2022-12-07T11:53:50.075Z,76.45
2022-12-07T11:54:50.064Z,76.49
2022-12-07T11:55:50.044Z,76.90
2022-12-07T11:56:50.049Z,77.11
2022-12-07T11:57:50.057Z,77.38
2022-12-07T11:58:50.022Z,77.49
2022-12-07T11:59:50.007Z,77.28
2022-12-07T12:00:49.991Z,77.07
2022-12-07T12:01:50.042Z,76.77
2022-12-07T12:02:50.039Z,76.45
2022-12-07T12:03:53.316Z,76.35
2022-12-07T12:04:49.958Z,76.56
2022-12-07T12:05:49.942Z,76.66
2022-12-07T12:06:50.195Z,76.66
2022-12-07T12:09:53.380Z,76.97
2022-12-07T12:10:49.891Z,77.28
2022-12-07T12:11:50.170Z,77.07
2022-12-07T12:14:49.839Z,76.87
2022-12-07T12:15:49.830Z,76.97
2022-12-07T12:16:49.903Z,76.77
2022-12-07T12:17:49.811Z,76.73
2022-12-07T12:18:49.797Z,76.62
2022-12-07T12:19:49.780Z,76.73
2022-12-07T12:20:49.785Z,76.62
2022-12-07T12:21:52.030Z,76.52
2022-12-07T12:22:49.749Z,76.42
2022-12-07T12:23:49.740Z,76.31
2022-12-07T12:24:49.721Z,76.52
2022-12-07T12:25:49.756Z,76.52
2022-12-07T12:26:49.705Z,76.62
2022-12-07T12:27:49.700Z,76.52
2022-12-07T12:28:50.455Z,76.62
2022-12-07T12:29:49.696Z,76.83
2022-12-07T12:30:49.660Z,76.83
2022-12-07T12:31:49.745Z,76.73
2022-12-07T12:32:49.686Z,76.62
2022-12-07T12:33:49.625Z,76.62
2022-12-07T12:34:50.849Z,76.62
2022-12-07T12:35:49.601Z,76.42
2022-12-07T12:36:49.716Z,76.42
2022-12-07T12:37:49.578Z,76.52
2022-12-07T12:38:49.563Z,76.62
2022-12-07T12:39:49.557Z,76.52
2022-12-07T12:40:51.250Z,76.94
2022-12-07T12:41:49.545Z,76.83
2022-12-07T12:42:49.514Z,76.62
2022-12-07T12:43:49.502Z,76.73
2022-12-07T12:44:49.499Z,76.62
2022-12-07T12:45:49.565Z,76.38
2022-12-07T12:46:50.432Z,76.28
2022-12-07T12:47:49.470Z,76.01
2022-12-07T12:48:49.452Z,75.90
2022-12-07T12:49:49.448Z,75.90
2022-12-07T12:50:49.458Z,76.01
2022-12-07T12:51:49.452Z,75.97
2022-12-07T12:52:50.761Z,76.08
2022-12-07T12:53:49.393Z,76.08
2022-12-07T12:54:49.382Z,75.97
2022-12-07T12:55:49.377Z,76.08
2022-12-07T12:56:49.506Z,75.87
2022-12-07T12:57:54.506Z,75.76